To NAV CANADA Home Page Login to a new session Search on AWWS site Disclaimer Vers la page française équivalente Tips FAQ What's new on the site To the Forecasts and Observations / NOTAM section To "File a Flight Plan" website Publications and other links Update of the User's profile FIC Telephone Numbers My Weather Data Folder Route Weather Data Regional Weather Data Local Weather Data To the Forecasts and Observations / NOTAM section
Request Generated 03/21/2019 at 01:30:31 UTC . Weather information available at that time is displayed.

METAR/TAF

HAVRE ST-PIERRE/QC    (show WxCam)

METAR CYGV 210100Z AUTO 24006KT 9SM SCT250 M03/M05 A3002 RMK SLP169=
METAR CYGV 210000Z AUTO 26011KT 9SM SCT250 M03/M04 A2999 RMK SLP160=
METAR CYGV 202300Z AUTO 26012KT 9SM SCT240 M02/M04 A2997 RMK SLP153=

TAF CYGV 201943Z 2020/2108 25015G30KT P6SM SCT030 BKN050 TEMPO
2020/2106 P6SM -SHSN BKN030
BECMG 2100/2102 03010KT
FM210600 06012KT P6SM -SHSN BKN030
RMK FCST BASED ON AUTO OBS. NXT FCST BY 210200Z=
Your time UTC time
Weather data provided by Environment Canada and NAV CANADA